sensor_id;sensor_type;location;lat;lon;timestamp;P1;durP1;ratioP1;P2;durP2;ratioP2
18455;SDS011;9357;49.900;8.208;2023-08-30T00:00:40;6.63;;;5.23;;
18455;SDS011;9357;49.900;8.208;2023-08-30T00:02:12;7.13;;;5.53;;
18455;SDS011;9357;49.900;8.208;2023-08-30T00:03:45;7.57;;;5.93;;
18455;SDS011;9357;49.900;8.208;2023-08-30T00:05:17;6.23;;;5.63;;
18455;SDS011;9357;49.900;8.208;2023-08-30T00:06:50;7.13;;;5.23;;
18455;SDS011;9357;49.900;8.208;2023-08-30T00:08:23;9.50;;;6.10;;
18455;SDS011;9357;49.900;8.208;2023-08-30T00:09:56;6.60;;;5.60;;
18455;SDS011;9357;49.900;8.208;2023-08-30T00:11:29;6.23;;;5.17;;
18455;SDS011;9357;49.900;8.208;2023-08-30T00:13:03;6.93;;;5.33;;
18455;SDS011;9357;49.900;8.208;2023-08-30T00:14:36;5.90;;;5.30;;
18455;SDS011;9357;49.900;8.208;2023-08-30T00:16:07;8.23;;;5.30;;
18455;SDS011;9357;49.900;8.208;2023-08-30T00:17:40;8.60;;;6.40;;
18455;SDS011;9357;49.900;8.208;2023-08-30T00:19:12;6.10;;;5.37;;
18455;SDS011;9357;49.900;8.208;2023-08-30T00:20:45;6.17;;;5.57;;
18455;SDS011;9357;49.900;8.208;2023-08-30T00:22:16;6.30;;;5.63;;
18455;SDS011;9357;49.900;8.208;2023-08-30T00:23:51;7.33;;;5.70;;
18455;SDS011;9357;49.900;8.208;2023-08-30T00:25:23;6.33;;;5.60;;
18455;SDS011;9357;49.900;8.208;2023-08-30T00:26:55;6.53;;;5.70;;
18455;SDS011;9357;49.900;8.208;2023-08-30T00:28:29;5.47;;;4.80;;
18455;SDS011;9357;49.900;8.208;2023-08-30T00:30:01;6.37;;;5.13;;
18455;SDS011;9357;49.900;8.208;2023-08-30T00:31:34;5.40;;;4.90;;
18455;SDS011;9357;49.900;8.208;2023-08-30T00:33:05;8.90;;;6.10;;
18455;SDS011;9357;49.900;8.208;2023-08-30T00:34:39;7.60;;;6.03;;
18455;SDS011;9357;49.900;8.208;2023-08-30T00:36:10;7.00;;;6.10;;
18455;SDS011;9357;49.900;8.208;2023-08-30T00:37:43;7.07;;;6.20;;
18455;SDS011;9357;49.900;8.208;2023-08-30T00:39:17;7.13;;;5.40;;
18455;SDS011;9357;49.900;8.208;2023-08-30T00:40:50;6.57;;;5.83;;
18455;SDS011;9357;49.900;8.208;2023-08-30T00:42:22;10.50;;;6.10;;
18455;SDS011;9357;49.900;8.208;2023-08-30T00:43:54;7.30;;;6.03;;
18455;SDS011;9357;49.900;8.208;2023-08-30T00:45:27;7.10;;;6.00;;
18455;SDS011;9357;49.900;8.208;2023-08-30T00:46:59;6.03;;;5.43;;
18455;SDS011;9357;49.900;8.208;2023-08-30T00:48:33;7.67;;;6.57;;
18455;SDS011;9357;49.900;8.208;2023-08-30T00:50:05;6.90;;;6.13;;
18455;SDS011;9357;49.900;8.208;2023-08-30T00:51:38;7.80;;;6.27;;
18455;SDS011;9357;49.900;8.208;2023-08-30T00:53:11;7.50;;;6.40;;
18455;SDS011;9357;49.900;8.208;2023-08-30T00:54:45;8.37;;;6.50;;
18455;SDS011;9357;49.900;8.208;2023-08-30T00:56:18;7.47;;;6.43;;
18455;SDS011;9357;49.900;8.208;2023-08-30T00:57:51;7.10;;;6.40;;
18455;SDS011;9357;49.900;8.208;2023-08-30T00:59:23;7.33;;;6.40;;
18455;SDS011;9357;49.900;8.208;2023-08-30T01:00:56;8.50;;;6.23;;
18455;SDS011;9357;49.900;8.208;2023-08-30T01:02:29;8.10;;;6.87;;
18455;SDS011;9357;49.900;8.208;2023-08-30T01:04:02;8.47;;;7.57;;
18455;SDS011;9357;49.900;8.208;2023-08-30T01:05:35;9.43;;;7.27;;
18455;SDS011;9357;49.900;8.208;2023-08-30T01:07:08;9.90;;;7.53;;
18455;SDS011;9357;49.900;8.208;2023-08-30T01:08:41;9.63;;;7.50;;
18455;SDS011;9357;49.900;8.208;2023-08-30T01:10:15;10.13;;;8.00;;
18455;SDS011;9357;49.900;8.208;2023-08-30T01:11:48;10.20;;;7.63;;
18455;SDS011;9357;49.900;8.208;2023-08-30T01:13:28;10.13;;;7.30;;
18455;SDS011;9357;49.900;8.208;2023-08-30T01:15:06;8.33;;;7.43;;
18455;SDS011;9357;49.900;8.208;2023-08-30T01:16:41;9.03;;;7.03;;
18455;SDS011;9357;49.900;8.208;2023-08-30T01:18:16;7.77;;;6.97;;
18455;SDS011;9357;49.900;8.208;2023-08-30T01:19:50;8.63;;;7.43;;
18455;SDS011;9357;49.900;8.208;2023-08-30T01:21:30;8.47;;;7.40;;
18455;SDS011;9357;49.900;8.208;2023-08-30T01:23:14;8.00;;;7.00;;
18455;SDS011;9357;49.900;8.208;2023-08-30T01:24:57;9.40;;;7.20;;
18455;SDS011;9357;49.900;8.208;2023-08-30T01:26:38;9.27;;;7.37;;
18455;SDS011;9357;49.900;8.208;2023-08-30T01:28:18;9.97;;;7.30;;
18455;SDS011;9357;49.900;8.208;2023-08-30T01:29:52;7.70;;;6.90;;
18455;SDS011;9357;49.900;8.208;2023-08-30T01:31:28;9.27;;;7.27;;
18455;SDS011;9357;49.900;8.208;2023-08-30T01:33:01;9.17;;;7.93;;
18455;SDS011;9357;49.900;8.208;2023-08-30T01:34:35;9.70;;;7.53;;
18455;SDS011;9357;49.900;8.208;2023-08-30T01:36:10;7.93;;;7.13;;
18455;SDS011;9357;49.900;8.208;2023-08-30T01:37:43;7.70;;;6.90;;
18455;SDS011;9357;49.900;8.208;2023-08-30T01:39:16;8.87;;;7.67;;
18455;SDS011;9357;49.900;8.208;2023-08-30T01:40:50;7.73;;;7.03;;
18455;SDS011;9357;49.900;8.208;2023-08-30T01:42:24;8.73;;;7.20;;
18455;SDS011;9357;49.900;8.208;2023-08-30T01:43:59;8.20;;;7.40;;
18455;SDS011;9357;49.900;8.208;2023-08-30T01:45:35;8.10;;;7.27;;
18455;SDS011;9357;49.900;8.208;2023-08-30T01:47:10;8.13;;;6.87;;
18455;SDS011;9357;49.900;8.208;2023-08-30T01:48:42;9.00;;;7.57;;
18455;SDS011;9357;49.900;8.208;2023-08-30T01:50:16;10.50;;;8.33;;
18455;SDS011;9357;49.900;8.208;2023-08-30T01:51:48;10.43;;;8.47;;
18455;SDS011;9357;49.900;8.208;2023-08-30T01:53:22;9.00;;;7.83;;
18455;SDS011;9357;49.900;8.208;2023-08-30T01:54:54;9.40;;;7.77;;
18455;SDS011;9357;49.900;8.208;2023-08-30T01:56:27;8.67;;;7.70;;
18455;SDS011;9357;49.900;8.208;2023-08-30T01:57:59;10.33;;;8.50;;
18455;SDS011;9357;49.900;8.208;2023-08-30T01:59:33;9.20;;;7.77;;
18455;SDS011;9357;49.900;8.208;2023-08-30T02:01:05;10.60;;;7.67;;
18455;SDS011;9357;49.900;8.208;2023-08-30T02:02:37;9.47;;;8.07;;
18455;SDS011;9357;49.900;8.208;2023-08-30T02:04:09;8.27;;;7.47;;
18455;SDS011;9357;49.900;8.208;2023-08-30T02:05:46;10.07;;;8.27;;
18455;SDS011;9357;49.900;8.208;2023-08-30T02:07:25;10.63;;;8.03;;
18455;SDS011;9357;49.900;8.208;2023-08-30T02:09:17;10.27;;;8.03;;
18455;SDS011;9357;49.900;8.208;2023-08-30T02:10:56;8.27;;;7.00;;
18455;SDS011;9357;49.900;8.208;2023-08-30T02:12:31;7.30;;;6.23;;
18455;SDS011;9357;49.900;8.208;2023-08-30T02:14:14;7.40;;;6.37;;
18455;SDS011;9357;49.900;8.208;2023-08-30T02:15:50;6.97;;;6.27;;
18455;SDS011;9357;49.900;8.208;2023-08-30T02:17:24;8.03;;;7.23;;
18455;SDS011;9357;49.900;8.208;2023-08-30T02:18:56;8.07;;;7.27;;
18455;SDS011;9357;49.900;8.208;2023-08-30T02:20:29;9.50;;;7.20;;
18455;SDS011;9357;49.900;8.208;2023-08-30T02:22:01;7.00;;;6.30;;
18455;SDS011;9357;49.900;8.208;2023-08-30T02:23:34;8.80;;;7.30;;
18455;SDS011;9357;49.900;8.208;2023-08-30T02:25:07;7.90;;;7.10;;
18455;SDS011;9357;49.900;8.208;2023-08-30T02:26:39;8.87;;;7.77;;
18455;SDS011;9357;49.900;8.208;2023-08-30T02:28:12;9.17;;;6.53;;
18455;SDS011;9357;49.900;8.208;2023-08-30T02:29:44;10.00;;;7.77;;
18455;SDS011;9357;49.900;8.208;2023-08-30T02:31:18;8.67;;;7.77;;
18455;SDS011;9357;49.900;8.208;2023-08-30T02:32:50;8.97;;;8.07;;
18455;SDS011;9357;49.900;8.208;2023-08-30T02:34:23;9.27;;;8.13;;
18455;SDS011;9357;49.900;8.208;2023-08-30T02:35:54;9.27;;;8.27;;
18455;SDS011;9357;49.900;8.208;2023-08-30T02:37:27;8.23;;;7.17;;
18455;SDS011;9357;49.900;8.208;2023-08-30T02:38:59;8.40;;;7.13;;
18455;SDS011;9357;49.900;8.208;2023-08-30T02:40:32;10.37;;;8.00;;
18455;SDS011;9357;49.900;8.208;2023-08-30T02:42:03;8.43;;;7.23;;
18455;SDS011;9357;49.900;8.208;2023-08-30T02:43:36;9.23;;;7.77;;
18455;SDS011;9357;49.900;8.208;2023-08-30T02:45:09;9.00;;;8.07;;
18455;SDS011;9357;49.900;8.208;2023-08-30T02:46:42;8.23;;;7.43;;
18455;SDS011;9357;49.900;8.208;2023-08-30T02:48:15;9.60;;;8.07;;
18455;SDS011;9357;49.900;8.208;2023-08-30T02:49:47;8.33;;;6.20;;
18455;SDS011;9357;49.900;8.208;2023-08-30T02:51:19;7.97;;;7.13;;
18455;SDS011;9357;49.900;8.208;2023-08-30T02:52:51;10.37;;;7.47;;
18455;SDS011;9357;49.900;8.208;2023-08-30T02:54:24;12.40;;;8.93;;
18455;SDS011;9357;49.900;8.208;2023-08-30T02:55:56;11.90;;;8.97;;
18455;SDS011;9357;49.900;8.208;2023-08-30T02:57:28;9.67;;;7.70;;
18455;SDS011;9357;49.900;8.208;2023-08-30T02:59:00;8.03;;;7.23;;
18455;SDS011;9357;49.900;8.208;2023-08-30T03:00:33;10.20;;;8.20;;
18455;SDS011;9357;49.900;8.208;2023-08-30T03:02:06;7.83;;;7.03;;
18455;SDS011;9357;49.900;8.208;2023-08-30T03:03:39;8.33;;;6.87;;
18455;SDS011;9357;49.900;8.208;2023-08-30T03:05:11;8.53;;;7.40;;
18455;SDS011;9357;49.900;8.208;2023-08-30T03:06:44;9.20;;;7.70;;
18455;SDS011;9357;49.900;8.208;2023-08-30T03:08:15;8.33;;;6.90;;
18455;SDS011;9357;49.900;8.208;2023-08-30T03:09:51;8.47;;;6.70;;
18455;SDS011;9357;49.900;8.208;2023-08-30T03:11:24;7.50;;;6.80;;
18455;SDS011;9357;49.900;8.208;2023-08-30T03:12:56;7.10;;;6.40;;
18455;SDS011;9357;49.900;8.208;2023-08-30T03:14:28;8.50;;;6.93;;
18455;SDS011;9357;49.900;8.208;2023-08-30T03:16:01;8.27;;;6.70;;
18455;SDS011;9357;49.900;8.208;2023-08-30T03:17:34;7.67;;;6.90;;
18455;SDS011;9357;49.900;8.208;2023-08-30T03:19:07;6.93;;;6.23;;
18455;SDS011;9357;49.900;8.208;2023-08-30T03:20:39;7.40;;;6.40;;
18455;SDS011;9357;49.900;8.208;2023-08-30T03:22:11;7.37;;;6.47;;
18455;SDS011;9357;49.900;8.208;2023-08-30T03:23:43;7.33;;;6.63;;
18455;SDS011;9357;49.900;8.208;2023-08-30T03:25:16;9.60;;;7.87;;
18455;SDS011;9357;49.900;8.208;2023-08-30T03:26:48;9.23;;;7.10;;
18455;SDS011;9357;49.900;8.208;2023-08-30T03:28:21;8.17;;;6.90;;
18455;SDS011;9357;49.900;8.208;2023-08-30T03:29:54;8.37;;;7.37;;
18455;SDS011;9357;49.900;8.208;2023-08-30T03:31:27;9.10;;;7.33;;
18455;SDS011;9357;49.900;8.208;2023-08-30T03:33:00;9.73;;;7.57;;
18455;SDS011;9357;49.900;8.208;2023-08-30T03:34:33;7.80;;;7.00;;
18455;SDS011;9357;49.900;8.208;2023-08-30T03:36:05;8.77;;;7.33;;
18455;SDS011;9357;49.900;8.208;2023-08-30T03:37:38;8.33;;;7.33;;
18455;SDS011;9357;49.900;8.208;2023-08-30T03:39:09;10.07;;;7.40;;
18455;SDS011;9357;49.900;8.208;2023-08-30T03:40:43;8.40;;;7.50;;
18455;SDS011;9357;49.900;8.208;2023-08-30T03:42:15;8.10;;;7.30;;
18455;SDS011;9357;49.900;8.208;2023-08-30T03:43:48;7.87;;;7.07;;
18455;SDS011;9357;49.900;8.208;2023-08-30T03:45:20;8.50;;;7.27;;
18455;SDS011;9357;49.900;8.208;2023-08-30T03:46:52;9.57;;;7.60;;
18455;SDS011;9357;49.900;8.208;2023-08-30T03:48:28;9.43;;;7.47;;
18455;SDS011;9357;49.900;8.208;2023-08-30T03:50:01;8.73;;;7.77;;
18455;SDS011;9357;49.900;8.208;2023-08-30T03:51:34;8.47;;;7.57;;
18455;SDS011;9357;49.900;8.208;2023-08-30T03:53:06;9.97;;;8.10;;
18455;SDS011;9357;49.900;8.208;2023-08-30T03:54:38;8.60;;;7.43;;
18455;SDS011;9357;49.900;8.208;2023-08-30T03:56:11;8.40;;;7.10;;
18455;SDS011;9357;49.900;8.208;2023-08-30T03:57:43;7.70;;;6.70;;
18455;SDS011;9357;49.900;8.208;2023-08-30T03:59:15;7.40;;;6.57;;
18455;SDS011;9357;49.900;8.208;2023-08-30T04:00:47;8.40;;;7.40;;
18455;SDS011;9357;49.900;8.208;2023-08-30T04:02:20;9.60;;;7.23;;
18455;SDS011;9357;49.900;8.208;2023-08-30T04:03:53;7.77;;;6.73;;
18455;SDS011;9357;49.900;8.208;2023-08-30T04:05:26;7.43;;;6.60;;
18455;SDS011;9357;49.900;8.208;2023-08-30T04:06:59;7.17;;;6.47;;
18455;SDS011;9357;49.900;8.208;2023-08-30T04:08:32;8.20;;;6.60;;
18455;SDS011;9357;49.900;8.208;2023-08-30T04:10:04;7.33;;;6.30;;
18455;SDS011;9357;49.900;8.208;2023-08-30T04:11:38;7.73;;;7.03;;
18455;SDS011;9357;49.900;8.208;2023-08-30T04:13:10;9.20;;;6.80;;
18455;SDS011;9357;49.900;8.208;2023-08-30T04:14:43;8.10;;;6.73;;
18455;SDS011;9357;49.900;8.208;2023-08-30T04:16:14;7.07;;;6.23;;
18455;SDS011;9357;49.900;8.208;2023-08-30T04:17:47;7.80;;;6.47;;
18455;SDS011;9357;49.900;8.208;2023-08-30T04:19:20;7.80;;;6.70;;
18455;SDS011;9357;49.900;8.208;2023-08-30T04:20:53;8.97;;;6.90;;
18455;SDS011;9357;49.900;8.208;2023-08-30T04:22:26;7.17;;;6.43;;
18455;SDS011;9357;49.900;8.208;2023-08-30T04:23:58;7.47;;;6.70;;
18455;SDS011;9357;49.900;8.208;2023-08-30T04:25:31;7.20;;;6.37;;
18455;SDS011;9357;49.900;8.208;2023-08-30T04:27:05;7.87;;;6.80;;
18455;SDS011;9357;49.900;8.208;2023-08-30T04:28:37;7.13;;;6.47;;
18455;SDS011;9357;49.900;8.208;2023-08-30T04:30:10;6.43;;;5.83;;
18455;SDS011;9357;49.900;8.208;2023-08-30T04:31:43;8.97;;;6.73;;
18455;SDS011;9357;49.900;8.208;2023-08-30T04:33:16;8.60;;;6.83;;
18455;SDS011;9357;49.900;8.208;2023-08-30T04:34:49;7.10;;;6.40;;
18455;SDS011;9357;49.900;8.208;2023-08-30T04:36:22;7.97;;;6.80;;
18455;SDS011;9357;49.900;8.208;2023-08-30T04:37:54;7.93;;;6.63;;
18455;SDS011;9357;49.900;8.208;2023-08-30T04:39:26;8.27;;;7.40;;
18455;SDS011;9357;49.900;8.208;2023-08-30T04:40:59;7.70;;;6.90;;
18455;SDS011;9357;49.900;8.208;2023-08-30T04:42:31;9.03;;;7.30;;
18455;SDS011;9357;49.900;8.208;2023-08-30T04:44:03;7.30;;;6.70;;
18455;SDS011;9357;49.900;8.208;2023-08-30T04:45:36;8.87;;;6.57;;
18455;SDS011;9357;49.900;8.208;2023-08-30T04:47:08;7.47;;;6.67;;
18455;SDS011;9357;49.900;8.208;2023-08-30T04:48:41;7.20;;;6.40;;
18455;SDS011;9357;49.900;8.208;2023-08-30T04:50:14;7.37;;;6.50;;
18455;SDS011;9357;49.900;8.208;2023-08-30T04:51:47;7.17;;;6.47;;
18455;SDS011;9357;49.900;8.208;2023-08-30T04:53:20;10.20;;;7.23;;
18455;SDS011;9357;49.900;8.208;2023-08-30T04:54:52;7.80;;;7.00;;
18455;SDS011;9357;49.900;8.208;2023-08-30T04:56:25;7.37;;;6.50;;
18455;SDS011;9357;49.900;8.208;2023-08-30T04:57:58;7.87;;;6.67;;
18455;SDS011;9357;49.900;8.208;2023-08-30T04:59:30;7.27;;;6.57;;
18455;SDS011;9357;49.900;8.208;2023-08-30T05:01:03;7.40;;;6.70;;
18455;SDS011;9357;49.900;8.208;2023-08-30T05:02:34;9.00;;;6.50;;
18455;SDS011;9357;49.900;8.208;2023-08-30T05:04:07;10.43;;;7.47;;
18455;SDS011;9357;49.900;8.208;2023-08-30T05:05:44;7.23;;;6.53;;
18455;SDS011;9357;49.900;8.208;2023-08-30T05:07:17;7.60;;;6.67;;
18455;SDS011;9357;49.900;8.208;2023-08-30T05:08:50;8.10;;;6.80;;
18455;SDS011;9357;49.900;8.208;2023-08-30T05:10:23;7.33;;;6.63;;
18455;SDS011;9357;49.900;8.208;2023-08-30T05:11:55;8.80;;;7.03;;
18455;SDS011;9357;49.900;8.208;2023-08-30T05:13:27;8.00;;;6.67;;
18455;SDS011;9357;49.900;8.208;2023-08-30T05:14:59;7.57;;;6.83;;
18455;SDS011;9357;49.900;8.208;2023-08-30T05:16:32;6.90;;;6.23;;
18455;SDS011;9357;49.900;8.208;2023-08-30T05:18:05;9.73;;;6.53;;
18455;SDS011;9357;49.900;8.208;2023-08-30T05:19:38;6.70;;;5.87;;
18455;SDS011;9357;49.900;8.208;2023-08-30T05:21:13;7.53;;;6.70;;
18455;SDS011;9357;49.900;8.208;2023-08-30T05:22:44;7.30;;;6.47;;
18455;SDS011;9357;49.900;8.208;2023-08-30T05:24:17;6.90;;;6.30;;
18455;SDS011;9357;49.900;8.208;2023-08-30T05:25:49;7.23;;;6.53;;
18455;SDS011;9357;49.900;8.208;2023-08-30T05:27:22;8.73;;;6.07;;
18455;SDS011;9357;49.900;8.208;2023-08-30T05:28:53;8.37;;;6.53;;
18455;SDS011;9357;49.900;8.208;2023-08-30T05:30:26;7.70;;;6.90;;
18455;SDS011;9357;49.900;8.208;2023-08-30T05:31:58;7.33;;;6.57;;
18455;SDS011;9357;49.900;8.208;2023-08-30T05:33:31;7.47;;;6.57;;
18455;SDS011;9357;49.900;8.208;2023-08-30T05:35:03;7.20;;;6.50;;
18455;SDS011;9357;49.900;8.208;2023-08-30T05:36:38;7.50;;;6.80;;
18455;SDS011;9357;49.900;8.208;2023-08-30T05:38:10;7.77;;;7.00;;
18455;SDS011;9357;49.900;8.208;2023-08-30T05:39:42;7.07;;;6.43;;
18455;SDS011;9357;49.900;8.208;2023-08-30T05:41:14;7.60;;;6.90;;
18455;SDS011;9357;49.900;8.208;2023-08-30T05:42:47;7.07;;;6.37;;
18455;SDS011;9357;49.900;8.208;2023-08-30T05:44:19;9.23;;;7.73;;
18455;SDS011;9357;49.900;8.208;2023-08-30T05:45:52;7.83;;;7.07;;
18455;SDS011;9357;49.900;8.208;2023-08-30T05:47:24;7.20;;;6.50;;
18455;SDS011;9357;49.900;8.208;2023-08-30T05:48:56;7.30;;;6.60;;
18455;SDS011;9357;49.900;8.208;2023-08-30T05:50:28;7.43;;;6.63;;
18455;SDS011;9357;49.900;8.208;2023-08-30T05:52:02;7.40;;;6.70;;
18455;SDS011;9357;49.900;8.208;2023-08-30T05:53:35;7.97;;;6.77;;
18455;SDS011;9357;49.900;8.208;2023-08-30T05:55:08;7.53;;;6.77;;
18455;SDS011;9357;49.900;8.208;2023-08-30T05:56:40;8.50;;;7.17;;
18455;SDS011;9357;49.900;8.208;2023-08-30T05:58:14;7.77;;;7.07;;
18455;SDS011;9357;49.900;8.208;2023-08-30T05:59:46;8.57;;;7.20;;
18455;SDS011;9357;49.900;8.208;2023-08-30T06:01:19;7.70;;;7.00;;
18455;SDS011;9357;49.900;8.208;2023-08-30T06:02:51;7.93;;;7.03;;
18455;SDS011;9357;49.900;8.208;2023-08-30T06:04:24;8.23;;;7.37;;
18455;SDS011;9357;49.900;8.208;2023-08-30T06:05:56;7.67;;;6.87;;
18455;SDS011;9357;49.900;8.208;2023-08-30T06:07:30;9.03;;;6.87;;
18455;SDS011;9357;49.900;8.208;2023-08-30T06:09:02;7.40;;;6.70;;
18455;SDS011;9357;49.900;8.208;2023-08-30T06:10:35;9.60;;;6.83;;
18455;SDS011;9357;49.900;8.208;2023-08-30T06:12:07;7.90;;;7.20;;
18455;SDS011;9357;49.900;8.208;2023-08-30T06:13:41;8.53;;;7.63;;
18455;SDS011;9357;49.900;8.208;2023-08-30T06:15:12;8.20;;;7.40;;
18455;SDS011;9357;49.900;8.208;2023-08-30T06:16:45;7.40;;;6.70;;
18455;SDS011;9357;49.900;8.208;2023-08-30T06:18:17;7.70;;;7.00;;
18455;SDS011;9357;49.900;8.208;2023-08-30T06:19:50;8.87;;;7.97;;
18455;SDS011;9357;49.900;8.208;2023-08-30T06:21:23;8.97;;;8.03;;
18455;SDS011;9357;49.900;8.208;2023-08-30T06:22:57;8.50;;;7.57;;
18455;SDS011;9357;49.900;8.208;2023-08-30T06:24:30;8.93;;;8.03;;
18455;SDS011;9357;49.900;8.208;2023-08-30T06:26:03;8.67;;;7.77;;
18455;SDS011;9357;49.900;8.208;2023-08-30T06:27:40;7.73;;;6.93;;
18455;SDS011;9357;49.900;8.208;2023-08-30T06:29:14;8.53;;;6.80;;
18455;SDS011;9357;49.900;8.208;2023-08-30T06:30:46;8.33;;;6.97;;
18455;SDS011;9357;49.900;8.208;2023-08-30T06:32:18;7.80;;;6.67;;
18455;SDS011;9357;49.900;8.208;2023-08-30T06:33:50;6.97;;;6.40;;
18455;SDS011;9357;49.900;8.208;2023-08-30T06:35:23;8.23;;;7.17;;
18455;SDS011;9357;49.900;8.208;2023-08-30T06:36:55;8.27;;;7.47;;
18455;SDS011;9357;49.900;8.208;2023-08-30T06:38:29;8.50;;;6.80;;
18455;SDS011;9357;49.900;8.208;2023-08-30T06:40:01;8.93;;;7.23;;
18455;SDS011;9357;49.900;8.208;2023-08-30T06:41:34;8.00;;;7.20;;
18455;SDS011;9357;49.900;8.208;2023-08-30T06:43:07;7.83;;;7.03;;
18455;SDS011;9357;49.900;8.208;2023-08-30T06:44:39;9.07;;;7.50;;
18455;SDS011;9357;49.900;8.208;2023-08-30T06:46:13;8.83;;;7.70;;
18455;SDS011;9357;49.900;8.208;2023-08-30T06:47:45;10.13;;;7.77;;
18455;SDS011;9357;49.900;8.208;2023-08-30T06:49:17;8.97;;;7.80;;
18455;SDS011;9357;49.900;8.208;2023-08-30T06:50:49;11.30;;;8.57;;
18455;SDS011;9357;49.900;8.208;2023-08-30T06:52:23;9.97;;;8.03;;
18455;SDS011;9357;49.900;8.208;2023-08-30T06:53:56;9.20;;;7.47;;
18455;SDS011;9357;49.900;8.208;2023-08-30T06:55:31;8.20;;;7.40;;
18455;SDS011;9357;49.900;8.208;2023-08-30T06:57:04;8.53;;;7.73;;
18455;SDS011;9357;49.900;8.208;2023-08-30T06:58:38;8.00;;;7.20;;
18455;SDS011;9357;49.900;8.208;2023-08-30T07:00:10;8.37;;;7.43;;
18455;SDS011;9357;49.900;8.208;2023-08-30T07:01:43;8.13;;;7.33;;
18455;SDS011;9357;49.900;8.208;2023-08-30T07:03:16;8.00;;;7.20;;
18455;SDS011;9357;49.900;8.208;2023-08-30T07:04:48;8.93;;;8.07;;
18455;SDS011;9357;49.900;8.208;2023-08-30T07:06:20;9.17;;;8.27;;
18455;SDS011;9357;49.900;8.208;2023-08-30T07:07:52;7.97;;;7.17;;
18455;SDS011;9357;49.900;8.208;2023-08-30T07:09:27;9.43;;;7.50;;
18455;SDS011;9357;49.900;8.208;2023-08-30T07:10:59;9.70;;;7.77;;
18455;SDS011;9357;49.900;8.208;2023-08-30T07:12:32;10.97;;;8.87;;
18455;SDS011;9357;49.900;8.208;2023-08-30T07:14:04;9.27;;;8.30;;
18455;SDS011;9357;49.900;8.208;2023-08-30T07:15:38;9.50;;;8.00;;
18455;SDS011;9357;49.900;8.208;2023-08-30T07:17:10;9.40;;;8.50;;
18455;SDS011;9357;49.900;8.208;2023-08-30T07:18:43;10.27;;;8.40;;
18455;SDS011;9357;49.900;8.208;2023-08-30T07:20:16;8.60;;;7.80;;
18455;SDS011;9357;49.900;8.208;2023-08-30T07:21:48;8.17;;;7.33;;
18455;SDS011;9357;49.900;8.208;2023-08-30T07:23:21;9.63;;;8.67;;
18455;SDS011;9357;49.900;8.208;2023-08-30T07:24:54;9.70;;;8.60;;
18455;SDS011;9357;49.900;8.208;2023-08-30T07:26:27;10.40;;;8.77;;
18455;SDS011;9357;49.900;8.208;2023-08-30T07:28:00;10.87;;;8.90;;
18455;SDS011;9357;49.900;8.208;2023-08-30T07:29:31;10.10;;;8.50;;
18455;SDS011;9357;49.900;8.208;2023-08-30T07:31:04;13.00;;;8.87;;
18455;SDS011;9357;49.900;8.208;2023-08-30T07:32:36;10.00;;;9.00;;
18455;SDS011;9357;49.900;8.208;2023-08-30T07:34:09;10.17;;;9.00;;
18455;SDS011;9357;49.900;8.208;2023-08-30T07:35:41;11.00;;;9.30;;
18455;SDS011;9357;49.900;8.208;2023-08-30T07:37:17;10.77;;;9.10;;
18455;SDS011;9357;49.900;8.208;2023-08-30T07:38:50;9.10;;;8.20;;
18455;SDS011;9357;49.900;8.208;2023-08-30T07:40:24;11.93;;;9.03;;
18455;SDS011;9357;49.900;8.208;2023-08-30T07:46:24;9.43;;;8.53;;
18455;SDS011;9357;49.900;8.208;2023-08-30T07:47:57;9.70;;;8.80;;
18455;SDS011;9357;49.900;8.208;2023-08-30T07:49:29;10.00;;;8.80;;
18455;SDS011;9357;49.900;8.208;2023-08-30T07:51:02;9.57;;;8.57;;
18455;SDS011;9357;49.900;8.208;2023-08-30T07:52:34;9.37;;;8.47;;
18455;SDS011;9357;49.900;8.208;2023-08-30T07:54:16;11.47;;;9.47;;
18455;SDS011;9357;49.900;8.208;2023-08-30T07:55:49;9.43;;;8.53;;
18455;SDS011;9357;49.900;8.208;2023-08-30T07:57:21;10.27;;;9.10;;
18455;SDS011;9357;49.900;8.208;2023-08-30T07:58:54;12.23;;;9.57;;
18455;SDS011;9357;49.900;8.208;2023-08-30T08:00:26;10.60;;;9.60;;
18455;SDS011;9357;49.900;8.208;2023-08-30T08:02:00;10.90;;;9.80;;
18455;SDS011;9357;49.900;8.208;2023-08-30T08:03:36;10.23;;;9.33;;
18455;SDS011;9357;49.900;8.208;2023-08-30T08:05:15;10.57;;;9.57;;
18455;SDS011;9357;49.900;8.208;2023-08-30T08:06:48;10.50;;;9.50;;
18455;SDS011;9357;49.900;8.208;2023-08-30T08:08:27;10.27;;;9.27;;
18455;SDS011;9357;49.900;8.208;2023-08-30T08:10:00;11.73;;;10.20;;
18455;SDS011;9357;49.900;8.208;2023-08-30T08:11:32;10.67;;;9.57;;
18455;SDS011;9357;49.900;8.208;2023-08-30T08:13:05;10.97;;;9.87;;
18455;SDS011;9357;49.900;8.208;2023-08-30T08:14:38;11.13;;;10.03;;
18455;SDS011;9357;49.900;8.208;2023-08-30T08:16:11;10.83;;;9.67;;
18455;SDS011;9357;49.900;8.208;2023-08-30T08:17:45;10.60;;;9.50;;
18455;SDS011;9357;49.900;8.208;2023-08-30T08:19:17;10.70;;;9.70;;
18455;SDS011;9357;49.900;8.208;2023-08-30T08:20:55;12.80;;;9.87;;
18455;SDS011;9357;49.900;8.208;2023-08-30T08:22:28;10.10;;;9.10;;
18455;SDS011;9357;49.900;8.208;2023-08-30T08:24:00;10.57;;;8.33;;
18455;SDS011;9357;49.900;8.208;2023-08-30T08:25:33;11.90;;;8.73;;
18455;SDS011;9357;49.900;8.208;2023-08-30T08:27:05;9.43;;;8.53;;
18455;SDS011;9357;49.900;8.208;2023-08-30T08:28:38;11.67;;;8.10;;
18455;SDS011;9357;49.900;8.208;2023-08-30T08:30:10;9.77;;;8.77;;
18455;SDS011;9357;49.900;8.208;2023-08-30T08:31:44;10.40;;;9.20;;
18455;SDS011;9357;49.900;8.208;2023-08-30T08:33:18;9.63;;;8.60;;
18455;SDS011;9357;49.900;8.208;2023-08-30T08:34:50;9.47;;;8.53;;
18455;SDS011;9357;49.900;8.208;2023-08-30T08:36:23;11.80;;;9.67;;
18455;SDS011;9357;49.900;8.208;2023-08-30T08:37:54;9.97;;;8.90;;
18455;SDS011;9357;49.900;8.208;2023-08-30T08:39:27;10.50;;;9.37;;
18455;SDS011;9357;49.900;8.208;2023-08-30T08:41:01;11.00;;;9.83;;
18455;SDS011;9357;49.900;8.208;2023-08-30T08:42:35;10.63;;;9.53;;
18455;SDS011;9357;49.900;8.208;2023-08-30T08:44:08;11.03;;;9.63;;
18455;SDS011;9357;49.900;8.208;2023-08-30T08:45:41;11.40;;;10.30;;
18455;SDS011;9357;49.900;8.208;2023-08-30T08:47:15;11.33;;;10.23;;
18455;SDS011;9357;49.900;8.208;2023-08-30T08:48:49;9.80;;;8.87;;
18455;SDS011;9357;49.900;8.208;2023-08-30T08:50:23;9.97;;;8.97;;
18455;SDS011;9357;49.900;8.208;2023-08-30T08:51:56;10.80;;;9.80;;
18455;SDS011;9357;49.900;8.208;2023-08-30T08:53:28;10.10;;;9.10;;
18455;SDS011;9357;49.900;8.208;2023-08-30T08:55:01;10.93;;;9.83;;
18455;SDS011;9357;49.900;8.208;2023-08-30T08:56:34;9.33;;;8.53;;
18455;SDS011;9357;49.900;8.208;2023-08-30T08:58:07;9.30;;;8.40;;
18455;SDS011;9357;49.900;8.208;2023-08-30T08:59:40;10.47;;;9.47;;
18455;SDS011;9357;49.900;8.208;2023-08-30T09:01:13;9.53;;;8.53;;
18455;SDS011;9357;49.900;8.208;2023-08-30T09:03:04;9.43;;;8.53;;
18455;SDS011;9357;49.900;8.208;2023-08-30T09:04:40;9.80;;;8.57;;
18455;SDS011;9357;49.900;8.208;2023-08-30T09:06:12;11.40;;;10.30;;
18455;SDS011;9357;49.900;8.208;2023-08-30T09:07:46;10.30;;;9.30;;
18455;SDS011;9357;49.900;8.208;2023-08-30T09:09:18;9.90;;;9.00;;
18455;SDS011;9357;49.900;8.208;2023-08-30T09:10:52;9.97;;;8.93;;
18455;SDS011;9357;49.900;8.208;2023-08-30T09:12:24;11.07;;;9.97;;
18455;SDS011;9357;49.900;8.208;2023-08-30T09:13:57;9.87;;;8.93;;
18455;SDS011;9357;49.900;8.208;2023-08-30T09:15:32;9.90;;;9.00;;
18455;SDS011;9357;49.900;8.208;2023-08-30T09:17:05;10.73;;;9.57;;
18455;SDS011;9357;49.900;8.208;2023-08-30T09:18:37;11.50;;;10.23;;
18455;SDS011;9357;49.900;8.208;2023-08-30T09:20:17;11.77;;;10.10;;
18455;SDS011;9357;49.900;8.208;2023-08-30T09:21:51;9.70;;;8.80;;
18455;SDS011;9357;49.900;8.208;2023-08-30T09:23:25;9.90;;;8.90;;
18455;SDS011;9357;49.900;8.208;2023-08-30T09:24:57;8.80;;;7.90;;
18455;SDS011;9357;49.900;8.208;2023-08-30T09:26:31;8.93;;;8.13;;
18455;SDS011;9357;49.900;8.208;2023-08-30T09:28:05;8.33;;;7.47;;
18455;SDS011;9357;49.900;8.208;2023-08-30T09:29:37;8.20;;;7.50;;
18455;SDS011;9357;49.900;8.208;2023-08-30T09:31:16;9.00;;;8.10;;
18455;SDS011;9357;49.900;8.208;2023-08-30T09:32:53;8.23;;;7.40;;